createdAt,value
2019-03-12T00:01:35.200Z,6.03
2019-03-12T00:03:43.715Z,6.01
2019-03-12T00:04:48.091Z,6.01
2019-03-12T00:05:52.481Z,6.01
2019-03-12T00:11:14.567Z,5.95
2019-03-12T00:15:30.765Z,5.96
2019-03-12T00:18:43.381Z,5.97
2019-03-12T00:22:58.521Z,5.93
2019-03-12T00:24:03.239Z,5.94
2019-03-12T00:26:11.415Z,5.92
2019-03-12T00:30:27.573Z,5.91
2019-03-12T00:31:32.969Z,5.92
2019-03-12T00:33:40.951Z,5.91
2019-03-12T00:35:48.964Z,5.92
2019-03-12T00:37:56.952Z,5.88
2019-03-12T00:40:06.863Z,5.87
2019-03-12T00:41:11.302Z,5.89
2019-03-12T00:42:15.680Z,5.90
2019-03-12T00:44:25.221Z,5.81
2019-03-12T00:45:29.644Z,5.82
2019-03-12T00:46:34.144Z,5.81
2019-03-12T00:48:42.085Z,5.85
2019-03-12T00:55:05.897Z,5.85
2019-03-12T00:59:22.355Z,5.86
2019-03-12T01:00:26.736Z,5.84
2019-03-12T01:02:35.598Z,5.86
2019-03-12T01:03:40.667Z,5.86
2019-03-12T01:11:08.095Z,5.87
2019-03-12T01:12:12.518Z,5.86
2019-03-12T01:13:17.608Z,5.86
2019-03-12T01:15:25.647Z,5.87
2019-03-12T01:19:41.645Z,5.85
2019-03-12T01:23:56.865Z,5.86
2019-03-12T01:27:08.479Z,5.87
2019-03-12T01:29:16.510Z,5.87
2019-03-12T01:31:24.501Z,5.84
2019-03-12T01:34:37.021Z,5.86
2019-03-12T01:38:52.203Z,5.81
2019-03-12T01:49:35.647Z,5.81
2019-03-12T01:51:43.624Z,5.72
2019-03-12T01:54:56.200Z,5.76
2019-03-12T01:56:00.637Z,5.77
2019-03-12T01:59:13.345Z,5.73
2019-03-12T02:00:18.726Z,5.70
2019-03-12T02:02:26.725Z,5.72
2019-03-12T02:04:34.706Z,5.71
2019-03-12T02:05:39.639Z,5.65
2019-03-12T02:07:48.601Z,5.70
2019-03-12T02:09:56.579Z,5.70
2019-03-12T02:11:01.016Z,5.70
2019-03-12T02:12:05.424Z,5.69
2019-03-12T02:13:09.819Z,5.69
2019-03-12T02:14:22.433Z,5.70
2019-03-12T02:15:26.796Z,5.70
2019-03-12T02:16:31.268Z,5.69
2019-03-12T02:21:51.227Z,5.67
2019-03-12T02:22:55.662Z,5.63
2019-03-12T02:24:00.119Z,5.57
2019-03-12T02:25:07.574Z,5.57
2019-03-12T02:28:20.199Z,5.61
2019-03-12T02:29:24.875Z,5.60
2019-03-12T02:34:43.755Z,5.58
2019-03-12T02:36:52.432Z,5.57
2019-03-12T02:39:00.650Z,5.59
2019-03-12T02:40:08.640Z,5.58
2019-03-12T02:42:16.783Z,5.51
2019-03-12T02:44:25.011Z,5.44
2019-03-12T02:46:33.285Z,5.39
2019-03-12T02:47:38.716Z,5.44
2019-03-12T02:48:43.083Z,5.45
2019-03-12T02:50:52.022Z,5.48
2019-03-12T02:54:03.640Z,5.49
2019-03-12T02:56:12.607Z,5.47
2019-03-12T02:57:17.084Z,5.47
2019-03-12T03:00:28.912Z,5.48
2019-03-12T03:01:33.280Z,5.48
2019-03-12T03:04:44.872Z,5.46
2019-03-12T03:09:00.360Z,5.45
2019-03-12T03:11:11.819Z,5.42
2019-03-12T03:12:16.252Z,5.43
2019-03-12T03:13:20.897Z,5.42
2019-03-12T03:15:35.089Z,5.42
2019-03-12T03:17:43.872Z,5.38
2019-03-12T03:18:48.333Z,5.34
2019-03-12T03:22:01.126Z,5.35
2019-03-12T03:23:06.630Z,5.36
2019-03-12T03:26:19.206Z,5.31
2019-03-12T03:27:23.843Z,5.34
2019-03-12T03:29:32.120Z,5.39
2019-03-12T03:31:40.602Z,5.40
2019-03-12T03:32:45.261Z,5.40
2019-03-12T03:33:49.962Z,5.42
2019-03-12T03:37:02.419Z,5.42
2019-03-12T03:38:07.057Z,5.44
2019-03-12T03:40:19.701Z,5.36
2019-03-12T03:41:24.409Z,5.39
2019-03-12T03:43:32.421Z,5.39
2019-03-12T03:47:48.761Z,5.44
2019-03-12T03:53:07.807Z,5.44
2019-03-12T03:54:12.208Z,5.45
2019-03-12T03:57:26.507Z,5.46
2019-03-12T03:59:35.799Z,5.50
2019-03-12T04:00:40.200Z,5.50
2019-03-12T04:01:44.599Z,5.48
2019-03-12T04:02:49.018Z,5.49
2019-03-12T04:06:00.671Z,5.50
2019-03-12T04:07:05.052Z,5.49
2019-03-12T04:10:17.946Z,5.54
2019-03-12T04:11:22.657Z,5.55
2019-03-12T04:13:30.622Z,5.53
2019-03-12T04:17:45.944Z,5.46
2019-03-12T04:19:53.929Z,5.42
2019-03-12T04:20:59.612Z,5.44
2019-03-12T04:22:03.965Z,5.46
2019-03-12T04:23:08.350Z,5.50
2019-03-12T04:25:16.395Z,5.50
2019-03-12T04:26:20.969Z,5.53
2019-03-12T04:27:25.427Z,5.54
2019-03-12T04:30:37.260Z,5.53
2019-03-12T04:32:45.345Z,5.53
2019-03-12T04:34:12.252Z,5.51
2019-03-12T04:35:28.502Z,5.47
2019-03-12T04:36:33.107Z,5.49
2019-03-12T04:38:41.161Z,5.49
2019-03-12T04:39:45.541Z,5.49
2019-03-12T04:40:49.908Z,5.52
2019-03-12T04:41:54.525Z,5.52
2019-03-12T04:42:59.006Z,5.54
2019-03-12T04:44:03.408Z,5.52
2019-03-12T04:45:11.701Z,5.52
2019-03-12T04:48:23.521Z,5.52
2019-03-12T04:49:27.910Z,5.55
2019-03-12T04:52:44.362Z,5.50
2019-03-12T04:53:49.059Z,5.54
2019-03-12T04:57:01.758Z,5.51
2019-03-12T05:01:19.992Z,5.57
2019-03-12T05:04:31.521Z,5.57
2019-03-12T05:05:36.019Z,5.58
2019-03-12T05:06:40.441Z,5.50
2019-03-12T05:07:44.809Z,5.52
2019-03-12T05:08:49.244Z,5.51
2019-03-12T05:09:54.767Z,5.55
2019-03-12T05:10:59.179Z,5.52
2019-03-12T05:12:03.685Z,5.55
2019-03-12T05:13:08.314Z,5.57
2019-03-12T05:14:19.983Z,5.59
2019-03-12T05:15:24.365Z,5.56
2019-03-12T05:16:28.707Z,5.59
2019-03-12T05:18:37.431Z,5.61
2019-03-12T05:19:41.813Z,5.60
2019-03-12T05:22:54.061Z,5.59
2019-03-12T05:23:58.423Z,5.63
2019-03-12T05:30:25.172Z,5.67
2019-03-12T05:31:29.615Z,5.66
2019-03-12T05:33:37.617Z,5.67
2019-03-12T05:35:45.575Z,5.68
2019-03-12T05:37:54.227Z,5.69
2019-03-12T05:38:58.643Z,5.69
2019-03-12T05:41:08.435Z,5.71
2019-03-12T05:42:12.877Z,5.72
2019-03-12T05:45:25.519Z,5.74
2019-03-12T05:48:37.097Z,5.75
2019-03-12T05:49:41.516Z,5.76
2019-03-12T05:51:49.485Z,5.78
2019-03-12T05:53:00.967Z,5.78
2019-03-12T05:55:10.739Z,5.77
2019-03-12T05:56:15.127Z,5.78
2019-03-12T05:58:23.098Z,5.79
2019-03-12T05:59:27.600Z,5.81
2019-03-12T06:01:35.736Z,5.83
2019-03-12T06:02:40.159Z,5.82
2019-03-12T06:03:44.567Z,5.84
2019-03-12T06:04:49.430Z,5.84
2019-03-12T06:06:57.597Z,5.85
2019-03-12T06:09:06.182Z,5.84
2019-03-12T06:10:13.815Z,5.84
2019-03-12T06:11:18.172Z,5.86
2019-03-12T06:12:22.593Z,5.86
2019-03-12T06:20:52.253Z,5.89
2019-03-12T06:25:07.727Z,5.93
2019-03-12T06:27:18.189Z,5.94
2019-03-12T06:30:29.501Z,5.97
2019-03-12T06:31:33.886Z,5.95
2019-03-12T06:36:52.643Z,5.97
2019-03-12T06:37:57.033Z,5.97
2019-03-12T06:41:10.541Z,5.99
2019-03-12T06:43:18.561Z,6.03
2019-03-12T06:44:23.224Z,6.01
2019-03-12T06:45:27.638Z,6.01
2019-03-12T06:46:32.006Z,6.03
2019-03-12T06:48:40.341Z,6.03
2019-03-12T06:49:44.754Z,6.03
2019-03-12T06:50:49.178Z,6.01
2019-03-12T06:51:53.573Z,6.05
2019-03-12T06:55:06.151Z,6.08
2019-03-12T06:58:17.746Z,6.13
2019-03-12T07:01:29.656Z,6.05
2019-03-12T07:02:34.031Z,6.06
2019-03-12T07:04:42.289Z,6.04
2019-03-12T07:06:50.289Z,5.98
2019-03-12T07:10:01.887Z,6.00
2019-03-12T07:14:18.116Z,6.03
2019-03-12T07:15:22.509Z,6.06
2019-03-12T07:18:34.084Z,6.01
2019-03-12T07:19:38.474Z,5.98
2019-03-12T07:22:50.048Z,5.98
2019-03-12T07:24:58.085Z,6.03
2019-03-12T07:26:02.455Z,6.09
2019-03-12T07:27:06.837Z,6.08
2019-03-12T07:29:14.908Z,6.06
2019-03-12T07:31:22.945Z,6.08
2019-03-12T07:32:27.629Z,6.11
2019-03-12T07:36:43.783Z,6.30
2019-03-12T07:37:49.365Z,6.30
2019-03-12T07:41:00.946Z,6.45
2019-03-12T07:42:05.367Z,6.36
2019-03-12T07:45:18.226Z,6.35
2019-03-12T07:47:35.580Z,6.35
2019-03-12T07:48:33.663Z,6.34
2019-03-12T07:54:57.042Z,6.64
2019-03-12T07:56:01.441Z,6.66
2019-03-12T07:59:13.068Z,6.45
2019-03-12T08:01:21.235Z,6.56
2019-03-12T08:03:29.147Z,6.64
2019-03-12T08:04:33.507Z,6.63
2019-03-12T08:07:45.083Z,6.65
2019-03-12T08:10:56.677Z,6.78
2019-03-12T08:15:22.913Z,6.92
2019-03-12T08:18:28.211Z,7.02
2019-03-12T08:20:36.167Z,7.09
2019-03-12T08:22:44.163Z,7.10
2019-03-12T08:25:56.509Z,7.19
2019-03-12T08:27:00.885Z,7.30
2019-03-12T08:36:38.055Z,7.76
2019-03-12T08:37:42.404Z,7.76
2019-03-12T08:38:46.969Z,7.84
2019-03-12T08:39:51.320Z,7.85
2019-03-12T08:42:00.210Z,7.76
2019-03-12T08:46:18.295Z,7.81
2019-03-12T08:47:22.717Z,7.79
2019-03-12T08:48:27.081Z,7.72
2019-03-12T08:52:42.756Z,7.83
2019-03-12T08:53:47.177Z,7.90
2019-03-12T08:55:55.282Z,7.84
2019-03-12T08:57:00.957Z,7.88
2019-03-12T08:59:08.928Z,7.87
2019-03-12T09:00:13.316Z,7.88
2019-03-12T09:01:17.725Z,7.92
2019-03-12T09:06:37.120Z,7.78
2019-03-12T09:08:45.113Z,7.85
2019-03-12T09:10:53.109Z,7.95
2019-03-12T09:11:58.121Z,7.97
2019-03-12T09:13:02.471Z,7.89
2019-03-12T09:15:11.571Z,7.94
2019-03-12T09:16:16.265Z,7.94
2019-03-12T09:18:24.427Z,8.06
2019-03-12T09:19:28.796Z,8.15
2019-03-12T09:23:43.959Z,8.38
2019-03-12T09:24:48.348Z,8.47
2019-03-12T09:27:59.940Z,8.96
2019-03-12T09:29:05.172Z,8.98
2019-03-12T09:33:21.736Z,8.60
2019-03-12T09:37:36.965Z,8.43
2019-03-12T09:39:45.012Z,8.48
2019-03-12T09:40:49.406Z,8.38
2019-03-12T09:42:57.429Z,8.37
2019-03-12T09:45:08.103Z,8.52
2019-03-12T09:47:16.085Z,8.64
2019-03-12T09:49:24.039Z,8.69
2019-03-12T09:52:35.680Z,9.00
2019-03-12T09:53:40.088Z,9.15
2019-03-12T09:54:44.480Z,9.02
2019-03-12T09:55:48.871Z,9.24
2019-03-12T10:04:22.688Z,9.52
2019-03-12T10:05:27.551Z,9.54
2019-03-12T10:10:46.442Z,9.78
2019-03-12T10:11:51.362Z,9.85
2019-03-12T10:12:56.997Z,9.90
2019-03-12T10:16:10.261Z,10.21
2019-03-12T10:19:22.111Z,10.09
2019-03-12T10:20:26.503Z,10.17
2019-03-12T10:21:30.893Z,10.10
2019-03-12T10:23:40.859Z,10.07
2019-03-12T10:24:46.753Z,10.10
2019-03-12T10:27:58.284Z,9.69
2019-03-12T10:30:09.481Z,9.78
2019-03-12T10:31:13.914Z,9.81
2019-03-12T10:32:18.302Z,9.81
2019-03-12T10:34:29.861Z,9.88
2019-03-12T10:37:40.912Z,9.98
2019-03-12T10:38:56.447Z,10.00
2019-03-12T10:40:01.966Z,10.12
2019-03-12T10:41:07.320Z,10.23
2019-03-12T10:42:11.723Z,10.29
2019-03-12T10:44:19.711Z,10.37
2019-03-12T10:46:28.743Z,10.39
2019-03-12T10:48:36.838Z,10.42
2019-03-12T10:51:48.477Z,10.37
2019-03-12T10:52:52.833Z,10.22
2019-03-12T10:56:04.457Z,10.43
2019-03-12T10:57:08.874Z,10.52
2019-03-12T10:59:16.899Z,10.55
2019-03-12T11:00:21.653Z,10.44
2019-03-12T11:01:26.038Z,10.50
2019-03-12T11:03:34.030Z,10.45
2019-03-12T11:04:38.376Z,10.44
2019-03-12T11:08:54.746Z,10.87
2019-03-12T11:10:00.193Z,10.86
2019-03-12T11:11:05.472Z,10.97
2019-03-12T11:17:30.007Z,10.82
2019-03-12T11:20:41.616Z,11.04
2019-03-12T11:24:57.747Z,10.99
2019-03-12T11:26:02.157Z,10.98
2019-03-12T11:27:06.555Z,10.95
2019-03-12T11:32:26.446Z,11.26
2019-03-12T11:34:34.440Z,10.90
2019-03-12T11:35:39.961Z,11.10
2019-03-12T11:37:48.236Z,11.39
2019-03-12T11:38:52.820Z,11.48
2019-03-12T11:39:57.229Z,11.60
2019-03-12T11:42:05.260Z,11.81
2019-03-12T11:43:09.899Z,11.56
2019-03-12T11:44:15.749Z,11.53
2019-03-12T11:45:31.073Z,11.66
2019-03-12T11:46:26.776Z,11.64
2019-03-12T11:48:34.821Z,11.64
2019-03-12T11:53:54.462Z,11.91
2019-03-12T11:54:59.088Z,12.02
2019-03-12T11:56:03.624Z,11.93
2019-03-12T11:58:11.965Z,11.80
2019-03-12T12:01:25.576Z,11.98
2019-03-12T12:02:30.048Z,12.21
2019-03-12T12:07:49.044Z,12.12
2019-03-12T12:12:04.510Z,12.73
2019-03-12T12:15:16.248Z,13.29
2019-03-12T12:16:20.909Z,13.32
2019-03-12T12:18:28.940Z,13.37
2019-03-12T12:19:33.331Z,13.37
2019-03-12T12:20:37.746Z,13.48
2019-03-12T12:21:42.151Z,13.66
2019-03-12T12:22:46.565Z,13.63
2019-03-12T12:27:01.805Z,13.33
2019-03-12T12:28:06.261Z,13.48
2019-03-12T12:30:20.247Z,13.43
2019-03-12T12:37:46.347Z,13.44
2019-03-12T12:38:50.762Z,13.37
2019-03-12T12:39:55.145Z,13.45
2019-03-12T12:40:59.580Z,13.33
2019-03-12T12:43:07.890Z,13.25
2019-03-12T12:44:12.297Z,13.37
2019-03-12T12:45:20.228Z,13.08
2019-03-12T12:47:28.249Z,12.90
2019-03-12T12:49:37.444Z,12.73
2019-03-12T12:51:45.471Z,12.52
2019-03-12T12:52:50.103Z,12.55
2019-03-12T12:53:54.545Z,12.53
2019-03-12T12:54:58.941Z,12.49
2019-03-12T12:56:03.439Z,12.54
2019-03-12T12:57:07.831Z,12.69
2019-03-12T12:59:15.854Z,12.67
2019-03-12T13:08:51.234Z,12.52
2019-03-12T13:14:10.113Z,12.45
2019-03-12T13:15:14.534Z,12.30
2019-03-12T13:18:27.139Z,12.33
2019-03-12T13:21:38.764Z,12.14
2019-03-12T13:24:50.394Z,12.12
2019-03-12T13:28:01.985Z,12.11
2019-03-12T13:31:21.009Z,12.03
2019-03-12T13:33:30.021Z,11.97
2019-03-12T13:34:34.405Z,11.95
2019-03-12T13:35:38.788Z,11.85
2019-03-12T13:42:02.683Z,12.33
2019-03-12T13:44:10.954Z,12.06
2019-03-12T13:45:20.817Z,12.00
2019-03-12T13:49:36.425Z,11.86
2019-03-12T13:50:41.082Z,11.95
2019-03-12T13:51:45.501Z,12.04
2019-03-12T13:56:00.965Z,12.06
2019-03-12T13:58:09.018Z,12.01
2019-03-12T13:59:13.485Z,11.91
2019-03-12T14:00:19.848Z,11.89
2019-03-12T14:02:27.847Z,11.85
2019-03-12T14:03:32.254Z,11.78
2019-03-12T14:04:36.648Z,11.79
2019-03-12T14:07:48.286Z,11.66
2019-03-12T14:08:52.689Z,11.65
2019-03-12T14:09:57.155Z,11.68
2019-03-12T14:16:29.485Z,11.41
2019-03-12T14:25:17.500Z,11.54
2019-03-12T14:26:21.914Z,11.41
2019-03-12T14:28:30.033Z,11.37
2019-03-12T14:29:34.414Z,11.39
2019-03-12T14:30:38.812Z,11.23
2019-03-12T14:32:46.808Z,11.12
2019-03-12T14:34:55.488Z,11.03
2019-03-12T14:36:00.195Z,11.01
2019-03-12T14:37:04.617Z,11.05
2019-03-12T14:41:22.247Z,11.30
2019-03-12T14:42:26.657Z,11.28
2019-03-12T14:43:31.031Z,11.29
2019-03-12T14:51:01.877Z,11.08
2019-03-12T14:53:21.856Z,10.92
2019-03-12T14:57:33.301Z,11.22
2019-03-12T14:58:37.692Z,11.13
2019-03-12T14:59:42.307Z,11.04
2019-03-12T15:01:50.273Z,11.19
2019-03-12T15:02:54.761Z,11.24
2019-03-12T15:03:59.878Z,11.23
2019-03-12T15:09:21.295Z,10.98
2019-03-12T15:10:26.031Z,11.01
2019-03-12T15:12:34.273Z,10.70
2019-03-12T15:16:50.005Z,10.64
2019-03-12T15:17:54.373Z,10.60
2019-03-12T15:18:58.755Z,10.65
2019-03-12T15:20:04.597Z,10.50
2019-03-12T15:22:13.640Z,10.53
2019-03-12T15:23:18.051Z,10.62
2019-03-12T15:24:22.454Z,10.48
2019-03-12T15:25:28.494Z,10.42
2019-03-12T15:32:03.152Z,10.24
2019-03-12T15:35:05.715Z,10.22
2019-03-12T15:41:28.334Z,10.04
2019-03-12T15:43:37.927Z,10.05
2019-03-12T15:44:42.625Z,10.10
2019-03-12T15:47:54.227Z,10.09
2019-03-12T15:48:58.642Z,10.03
2019-03-12T15:50:04.445Z,10.08
2019-03-12T15:52:12.457Z,9.97
2019-03-12T15:54:20.571Z,9.91
2019-03-12T15:56:30.657Z,9.94
2019-03-12T15:58:38.917Z,9.77
2019-03-12T15:59:43.307Z,9.85
2019-03-12T16:00:47.736Z,9.81
2019-03-12T16:01:52.107Z,9.81
2019-03-12T16:04:00.096Z,9.73
2019-03-12T16:05:06.531Z,9.78
2019-03-12T16:07:14.509Z,9.62
2019-03-12T16:09:22.488Z,9.68
2019-03-12T16:10:26.917Z,9.65
2019-03-12T16:13:38.596Z,9.68
2019-03-12T16:15:46.578Z,9.75
2019-03-12T16:16:50.976Z,9.72
2019-03-12T16:17:55.369Z,9.70
2019-03-12T16:20:06.400Z,9.54
2019-03-12T16:22:14.385Z,9.65
2019-03-12T16:24:22.379Z,9.60
2019-03-12T16:27:34.685Z,9.69
2019-03-12T16:28:39.093Z,9.59
2019-03-12T16:31:50.636Z,9.59
2019-03-12T16:33:58.579Z,9.47
2019-03-12T16:36:07.217Z,9.48
2019-03-12T16:37:11.934Z,9.48
2019-03-12T16:39:20.175Z,9.41
2019-03-12T16:41:28.261Z,9.32
2019-03-12T16:42:35.204Z,9.21
2019-03-12T16:44:44.603Z,9.34
2019-03-12T16:45:48.987Z,9.28
2019-03-12T16:47:56.985Z,9.24
2019-03-12T16:49:01.465Z,9.26
2019-03-12T16:51:13.675Z,9.14
2019-03-12T16:53:21.638Z,9.13
2019-03-12T16:56:44.573Z,9.27
2019-03-12T16:57:39.599Z,9.30
2019-03-12T16:59:47.593Z,9.39
2019-03-12T17:02:59.190Z,9.29
2019-03-12T17:04:04.157Z,9.22
2019-03-12T17:05:10.347Z,9.25
2019-03-12T17:07:18.367Z,9.28
2019-03-12T17:08:22.759Z,9.22
2019-03-12T17:09:27.176Z,9.23
2019-03-12T17:12:38.773Z,9.15
2019-03-12T17:16:54.015Z,9.24
2019-03-12T17:19:02.236Z,9.22
2019-03-12T17:20:11.105Z,9.14
2019-03-12T17:21:15.590Z,9.11
2019-03-12T17:24:30.170Z,9.06
2019-03-12T17:25:34.506Z,9.12
2019-03-12T17:29:49.925Z,9.10
2019-03-12T17:33:02.662Z,9.09
2019-03-12T17:34:08.112Z,9.05
2019-03-12T17:35:15.740Z,9.05
2019-03-12T17:36:20.249Z,9.06
2019-03-12T17:37:24.709Z,9.09
2019-03-12T17:38:41.689Z,9.06
2019-03-12T17:39:35.489Z,9.04
2019-03-12T17:41:43.469Z,9.04
2019-03-12T17:42:47.831Z,9.02
2019-03-12T17:43:52.229Z,9.03
2019-03-12T17:46:01.204Z,8.95
2019-03-12T17:49:13.008Z,8.92
2019-03-12T17:51:21.149Z,8.88
2019-03-12T17:52:25.504Z,8.83
2019-03-12T17:54:33.486Z,8.73
2019-03-12T17:55:37.841Z,8.76
2019-03-12T18:03:03.812Z,8.69
2019-03-12T18:06:16.168Z,8.61
2019-03-12T18:09:27.856Z,8.60
2019-03-12T18:12:39.466Z,8.59
2019-03-12T18:13:43.843Z,8.58
2019-03-12T18:16:55.688Z,8.53
2019-03-12T18:19:04.073Z,8.50
2019-03-12T18:21:14.775Z,8.53
2019-03-12T18:22:19.298Z,8.43
2019-03-12T18:26:41.103Z,8.48
2019-03-12T18:27:45.486Z,8.46
2019-03-12T18:30:57.899Z,8.40
2019-03-12T18:33:05.977Z,8.31
2019-03-12T18:34:10.359Z,8.29
2019-03-12T18:35:15.033Z,8.28
2019-03-12T18:36:20.459Z,8.31
2019-03-12T18:37:25.484Z,8.34
2019-03-12T18:38:29.874Z,8.38
2019-03-12T18:41:41.647Z,8.32
2019-03-12T18:45:57.183Z,8.32
2019-03-12T18:47:02.337Z,8.32
2019-03-12T18:49:10.423Z,8.26
2019-03-12T18:50:16.521Z,8.27
2019-03-12T18:52:24.752Z,8.29
2019-03-12T18:53:29.178Z,8.28
2019-03-12T18:58:52.955Z,8.23
2019-03-12T19:03:10.635Z,8.24
2019-03-12T19:09:49.339Z,8.23
2019-03-12T19:11:57.349Z,8.18
2019-03-12T19:15:11.899Z,8.17
2019-03-12T19:16:16.315Z,8.15
2019-03-12T19:18:26.272Z,8.17
2019-03-12T19:19:30.859Z,8.15
2019-03-12T19:22:42.383Z,8.10
2019-03-12T19:24:50.340Z,8.16
2019-03-12T19:26:58.574Z,8.19
2019-03-12T19:28:05.130Z,8.19
2019-03-12T19:29:09.829Z,8.17
2019-03-12T19:32:23.728Z,8.09
2019-03-12T19:34:31.803Z,8.12
2019-03-12T19:35:36.173Z,8.13
2019-03-12T19:37:44.161Z,8.16
2019-03-12T19:38:48.547Z,8.16
2019-03-12T19:39:53.002Z,8.17
2019-03-12T19:45:12.806Z,8.11
2019-03-12T19:46:17.959Z,8.12
2019-03-12T19:55:55.082Z,8.06
2019-03-12T19:56:59.518Z,8.07
2019-03-12T20:00:21.818Z,7.94
2019-03-12T20:01:28.163Z,7.92
2019-03-12T20:03:36.566Z,7.85
2019-03-12T20:04:47.064Z,7.84
2019-03-12T20:05:47.272Z,7.81
2019-03-12T20:08:58.921Z,7.70
2019-03-12T20:19:23.658Z,7.64
2019-03-12T20:27:53.436Z,7.56
2019-03-12T20:32:02.789Z,7.55
2019-03-12T20:33:13.067Z,7.53
2019-03-12T20:49:28.732Z,7.43
2019-03-12T20:59:21.262Z,7.34
2019-03-12T21:23:02.685Z,7.34
2019-03-12T21:26:56.721Z,7.35
2019-03-12T21:28:11.856Z,7.36
2019-03-12T21:29:33.944Z,7.36
2019-03-12T21:31:42.157Z,7.35
2019-03-12T21:40:14.396Z,7.35
2019-03-12T21:44:30.020Z,7.34
2019-03-12T21:49:49.239Z,7.31
2019-03-12T21:50:54.594Z,7.29
2019-03-12T21:51:58.984Z,7.29
2019-03-12T21:55:13.705Z,7.28
2019-03-12T21:56:18.083Z,7.26
2019-03-12T22:01:36.885Z,7.24
2019-03-12T22:02:41.988Z,7.24
2019-03-12T22:04:49.940Z,7.24
2019-03-12T22:05:54.336Z,7.22
2019-03-12T22:08:02.305Z,7.21
2019-03-12T22:12:19.481Z,7.14
2019-03-12T22:14:27.441Z,7.16
2019-03-12T22:19:46.247Z,7.13
2019-03-12T22:21:55.377Z,7.12
2019-03-12T22:22:59.788Z,7.09
2019-03-12T22:24:05.479Z,7.07
2019-03-12T22:26:15.867Z,7.07
2019-03-12T22:28:23.875Z,7.05
2019-03-12T22:29:28.288Z,7.06
2019-03-12T22:30:32.744Z,7.07
2019-03-12T22:31:37.211Z,7.04
2019-03-12T22:32:42.017Z,7.05
2019-03-12T22:33:46.331Z,7.04
2019-03-12T22:34:50.750Z,7.04
2019-03-12T22:35:55.161Z,7.02
2019-03-12T22:39:06.844Z,7.01
2019-03-12T22:41:17.711Z,7.01
2019-03-12T22:43:26.655Z,7.02
2019-03-12T22:44:31.442Z,7.02
2019-03-12T22:45:35.867Z,7.02
2019-03-12T22:49:51.237Z,7.05
2019-03-12T22:50:55.540Z,7.05
2019-03-12T22:52:00.943Z,7.05
2019-03-12T22:54:10.215Z,7.04
2019-03-12T22:55:14.595Z,7.06
2019-03-12T22:57:23.661Z,7.04
2019-03-12T22:59:42.632Z,7.04
2019-03-12T23:02:03.519Z,7.07
2019-03-12T23:03:13.440Z,7.06
2019-03-12T23:05:32.006Z,7.04
2019-03-12T23:07:50.533Z,7.02
2019-03-12T23:11:09.204Z,7.05
2019-03-12T23:13:19.237Z,7.08
2019-03-12T23:14:23.769Z,7.07
2019-03-12T23:15:28.276Z,7.07
2019-03-12T23:17:37.102Z,7.07
2019-03-12T23:18:41.744Z,7.06
2019-03-12T23:19:47.210Z,7.05
2019-03-12T23:20:51.664Z,7.07
2019-03-12T23:24:04.992Z,7.05
2019-03-12T23:25:09.596Z,7.04
2019-03-12T23:26:15.645Z,7.05
2019-03-12T23:28:24.462Z,7.04
2019-03-12T23:33:43.948Z,7.01
2019-03-12T23:34:48.365Z,7.00
2019-03-12T23:35:52.860Z,6.98
2019-03-12T23:36:57.289Z,6.98
2019-03-12T23:39:06.684Z,6.98
2019-03-12T23:41:18.696Z,6.98
2019-03-12T23:44:30.404Z,6.96
2019-03-12T23:46:39.400Z,6.96
2019-03-12T23:48:47.822Z,6.96
2019-03-12T23:49:52.149Z,6.94
2019-03-12T23:52:00.301Z,6.93
2019-03-12T23:53:04.856Z,6.94
2019-03-12T23:55:15.144Z,6.96
2019-03-12T23:56:19.628Z,6.97
2019-03-12T23:58:29.615Z,6.97
